createdAt,value
2016-12-24T00:00:01.109Z,0
2016-12-24T00:01:00.906Z,0
2016-12-24T00:02:00.824Z,0
2016-12-24T00:03:00.528Z,0
2016-12-24T00:04:00.857Z,0
2016-12-24T00:05:01.189Z,0
2016-12-24T00:06:00.884Z,0
2016-12-24T00:07:01.528Z,0
2016-12-24T00:08:00.931Z,0
2016-12-24T00:09:00.943Z,0
2016-12-24T00:10:00.954Z,0
2016-12-24T00:11:01.058Z,0
2016-12-24T00:12:01.280Z,0
2016-12-24T00:13:00.983Z,0
2016-12-24T00:14:01.309Z,0
2016-12-24T00:15:01.328Z,0
2016-12-24T00:16:01.341Z,0
2016-12-24T00:17:01.041Z,0
2016-12-24T00:18:01.371Z,0
2016-12-24T00:19:01.072Z,0
2016-12-24T00:20:01.417Z,0
2016-12-24T00:21:00.791Z,0
2016-12-24T00:22:01.436Z,0
2016-12-24T00:23:01.448Z,0
2016-12-24T00:24:01.500Z,0
2016-12-24T00:25:01.794Z,0
2016-12-24T00:26:01.612Z,0
2016-12-24T00:27:01.510Z,0
2016-12-24T00:28:01.208Z,0
2016-12-24T00:29:01.221Z,0
2016-12-24T00:30:01.237Z,0
2016-12-24T00:31:01.568Z,0
2016-12-24T00:32:01.264Z,0
2016-12-24T00:33:01.921Z,0
2016-12-24T00:34:01.611Z,0
2016-12-24T00:35:01.322Z,0
2016-12-24T00:36:01.423Z,0
2016-12-24T00:37:01.340Z,0
2016-12-24T00:38:01.361Z,0
2016-12-24T00:39:01.370Z,0
2016-12-24T00:40:01.386Z,0
2016-12-24T00:41:02.031Z,0
2016-12-24T00:42:01.735Z,0
2016-12-24T00:43:01.745Z,0
2016-12-24T00:44:01.761Z,0
2016-12-24T00:45:01.463Z,0
2016-12-24T00:46:01.573Z,0
2016-12-24T00:47:01.498Z,0
2016-12-24T00:48:01.817Z,0
2016-12-24T00:49:01.520Z,0
2016-12-24T00:50:01.531Z,0
2016-12-24T00:51:01.871Z,0
2016-12-24T00:52:01.565Z,0
2016-12-24T00:53:01.915Z,0
2016-12-24T00:54:01.276Z,0
2016-12-24T00:55:01.294Z,0
2016-12-24T00:56:01.622Z,0
2016-12-24T00:57:01.651Z,0
2016-12-24T00:58:01.970Z,0
2016-12-24T00:59:02.298Z,0
2016-12-24T01:00:02.023Z,0
2016-12-24T01:01:01.798Z,0
2016-12-24T01:02:02.345Z,0
2016-12-24T01:03:02.044Z,0
2016-12-24T01:04:02.378Z,0
2016-12-24T01:05:01.442Z,0
2016-12-24T01:06:02.424Z,0
2016-12-24T01:07:01.473Z,0
2016-12-24T01:08:02.138Z,0
2016-12-24T01:09:01.820Z,0
2016-12-24T01:10:02.144Z,0
2016-12-24T01:11:01.866Z,0
2016-12-24T01:12:01.899Z,0
2016-12-24T01:13:01.910Z,0
2016-12-24T01:14:02.209Z,0
2016-12-24T01:15:02.262Z,0
2016-12-24T01:16:02.355Z,0
2016-12-24T01:17:01.948Z,0
2016-12-24T01:18:01.634Z,0
2016-12-24T01:19:02.287Z,0
2016-12-24T01:20:01.982Z,0
2016-12-24T01:21:02.311Z,0
2016-12-24T01:22:02.328Z,0
2016-12-24T01:23:02.022Z,0
2016-12-24T01:24:02.041Z,0
2016-12-24T01:25:02.062Z,0
2016-12-24T01:26:02.390Z,0
2016-12-24T01:27:02.713Z,0
2016-12-24T01:28:02.414Z,0
2016-12-24T01:29:02.440Z,0
2016-12-24T01:30:02.155Z,0
2016-12-24T01:31:02.142Z,0
2016-12-24T01:32:02.487Z,0
2016-12-24T01:33:02.890Z,0
2016-12-24T01:34:02.192Z,0
2016-12-24T01:35:02.336Z,0
2016-12-24T01:36:02.615Z,0
2016-12-24T01:37:02.996Z,0
2016-12-24T01:38:02.251Z,0
2016-12-24T01:39:02.265Z,0
2016-12-24T01:40:03.142Z,0
2016-12-24T01:41:02.027Z,0
2016-12-24T01:42:02.636Z,0
2016-12-24T01:43:02.322Z,0
2016-12-24T01:44:02.024Z,0
2016-12-24T01:45:02.668Z,0
2016-12-24T01:46:02.683Z,0
2016-12-24T01:47:02.072Z,0
2016-12-24T01:48:03.033Z,0
2016-12-24T01:49:02.409Z,0
2016-12-24T01:50:02.310Z,0
2016-12-24T01:51:02.763Z,0
2016-12-24T01:52:02.834Z,0
2016-12-24T01:53:02.470Z,0
2016-12-24T01:54:02.486Z,0
2016-12-24T01:55:02.822Z,0
2016-12-24T01:56:02.834Z,0
2016-12-24T01:57:02.217Z,0
2016-12-24T01:58:02.879Z,0
2016-12-24T01:59:02.899Z,0
2016-12-24T02:00:03.205Z,0
2016-12-24T02:01:02.913Z,0
2016-12-24T02:02:02.606Z,0
2016-12-24T02:03:03.252Z,0
2016-12-24T02:04:03.265Z,0
2016-12-24T02:05:02.964Z,0
2016-12-24T02:06:03.294Z,0
2016-12-24T02:07:02.676Z,0
2016-12-24T02:08:03.008Z,0
2016-12-24T02:09:03.033Z,0
2016-12-24T02:10:02.726Z,0
2016-12-24T02:11:02.738Z,0
2016-12-24T02:12:03.072Z,0
2016-12-24T02:13:02.775Z,0
2016-12-24T02:14:03.100Z,0
2016-12-24T02:15:03.117Z,0
2016-12-24T02:16:02.814Z,0
2016-12-24T02:17:03.168Z,0
2016-12-24T02:18:02.848Z,0
2016-12-24T02:19:03.196Z,0
2016-12-24T02:20:03.195Z,0
2016-12-24T02:21:02.890Z,0
2016-12-24T02:22:02.907Z,0
2016-12-24T02:23:02.925Z,0
2016-12-24T02:24:02.618Z,0
2016-12-24T02:25:03.265Z,0
2016-12-24T02:26:02.966Z,0
2016-12-24T02:27:03.304Z,0
2016-12-24T02:28:02.997Z,0
2016-12-24T02:29:03.015Z,0
2016-12-24T02:30:03.347Z,0
2016-12-24T02:31:03.037Z,0
2016-12-24T02:32:03.108Z,0
2016-12-24T02:33:03.386Z,0
2016-12-24T02:34:03.438Z,0
2016-12-24T02:35:03.104Z,0
2016-12-24T02:36:03.123Z,0
2016-12-24T02:37:03.135Z,0
2016-12-24T02:38:03.145Z,0
2016-12-24T02:39:03.160Z,0
2016-12-24T02:40:03.196Z,0
2016-12-24T02:41:03.197Z,0
2016-12-24T02:42:03.542Z,0
2016-12-24T02:43:03.865Z,0
2016-12-24T02:44:03.249Z,0
2016-12-24T02:45:03.254Z,0
2016-12-24T02:46:03.598Z,0
2016-12-24T02:47:03.283Z,0
2016-12-24T02:48:03.301Z,0
2016-12-24T02:49:02.998Z,0
2016-12-24T02:50:03.965Z,0
2016-12-24T02:51:03.031Z,0
2016-12-24T02:52:03.359Z,0
2016-12-24T02:53:03.697Z,0
2016-12-24T02:54:03.073Z,0
2016-12-24T02:55:04.035Z,0
2016-12-24T02:56:03.106Z,0
2016-12-24T02:57:04.083Z,0
2016-12-24T02:58:03.766Z,0
2016-12-24T02:59:03.780Z,0
2016-12-24T03:00:03.834Z,0
2016-12-24T03:01:04.162Z,0
2016-12-24T03:02:03.829Z,0
2016-12-24T03:03:03.527Z,0
2016-12-24T03:04:03.547Z,0
2016-12-24T03:05:03.237Z,0
2016-12-24T03:06:03.585Z,0
2016-12-24T03:07:03.903Z,0
2016-12-24T03:08:03.949Z,0
2016-12-24T03:09:04.251Z,0
2016-12-24T03:10:03.633Z,0
2016-12-24T03:11:03.656Z,0
2016-12-24T03:12:03.979Z,0
2016-12-24T03:13:03.999Z,0
2016-12-24T03:14:03.698Z,0
2016-12-24T03:15:04.026Z,0
2016-12-24T03:16:04.352Z,0
2016-12-24T03:17:04.053Z,0
2016-12-24T03:18:03.760Z,0
2016-12-24T03:19:04.087Z,0
2016-12-24T03:20:04.420Z,0
2016-12-24T03:21:03.483Z,0
2016-12-24T03:22:03.817Z,0
2016-12-24T03:23:04.465Z,0
2016-12-24T03:24:04.164Z,0
2016-12-24T03:25:04.510Z,0
2016-12-24T03:26:04.200Z,0
2016-12-24T03:27:04.209Z,0
2016-12-24T03:28:04.228Z,0
2016-12-24T03:29:03.922Z,0
2016-12-24T03:30:04.256Z,0
2016-12-24T03:31:04.269Z,0
2016-12-24T03:32:04.283Z,0
2016-12-24T03:33:04.307Z,0
2016-12-24T03:34:03.998Z,0
2016-12-24T03:35:04.050Z,0
2016-12-24T03:36:04.344Z,0
2016-12-24T03:37:03.732Z,0
2016-12-24T03:38:04.063Z,0
2016-12-24T03:39:04.711Z,0
2016-12-24T03:40:04.726Z,0
2016-12-24T03:41:04.109Z,0
2016-12-24T03:42:04.434Z,0
2016-12-24T03:43:04.453Z,0
2016-12-24T03:44:04.163Z,0
2016-12-24T03:45:04.491Z,0
2016-12-24T03:46:04.528Z,0
2016-12-24T03:47:04.514Z,0
2016-12-24T03:48:04.213Z,0
2016-12-24T03:49:04.227Z,0
2016-12-24T03:50:04.566Z,0
2016-12-24T03:51:04.590Z,0
2016-12-24T03:52:04.286Z,0
2016-12-24T03:53:04.306Z,0
2016-12-24T03:54:04.014Z,0
2016-12-24T03:55:04.652Z,0
2016-12-24T03:56:04.364Z,0
2016-12-24T03:57:04.697Z,0
2016-12-24T03:58:04.365Z,0
2016-12-24T03:59:04.387Z,0
2016-12-24T04:00:04.405Z,0
2016-12-24T04:01:04.729Z,0
2016-12-24T04:02:04.427Z,0
2016-12-24T04:03:04.769Z,0
2016-12-24T04:04:04.459Z,0
2016-12-24T04:05:04.793Z,0
2016-12-24T04:06:04.806Z,0
2016-12-24T04:07:04.825Z,0
2016-12-24T04:08:04.831Z,0
2016-12-24T04:09:04.535Z,0
2016-12-24T04:10:04.894Z,0
2016-12-24T04:11:04.888Z,0
2016-12-24T04:12:04.584Z,0
2016-12-24T04:13:04.911Z,0
2016-12-24T04:14:04.294Z,0
2016-12-24T04:15:04.948Z,0
2016-12-24T04:16:04.641Z,0
2016-12-24T04:17:04.371Z,0
2016-12-24T04:18:04.670Z,0
2016-12-24T04:19:05.000Z,0
2016-12-24T04:20:04.700Z,0
2016-12-24T04:21:04.716Z,0
2016-12-24T04:22:05.046Z,0
2016-12-24T04:23:04.758Z,0
2016-12-24T04:24:05.081Z,0
2016-12-24T04:25:04.466Z,0
2016-12-24T04:26:05.110Z,0
2016-12-24T04:27:05.122Z,0
2016-12-24T04:28:04.510Z,0
2016-12-24T04:29:05.174Z,0
2016-12-24T04:30:04.852Z,0
2016-12-24T04:31:04.871Z,0
2016-12-24T04:32:05.207Z,0
2016-12-24T04:33:04.923Z,0
2016-12-24T04:34:05.550Z,0
2016-12-24T04:35:04.929Z,0
2016-12-24T04:36:04.947Z,0
2016-12-24T04:37:04.961Z,0
2016-12-24T04:38:05.292Z,0
2016-12-24T04:39:05.620Z,0
2016-12-24T04:40:05.049Z,0
2016-12-24T04:41:05.334Z,0
2016-12-24T04:42:05.358Z,0
2016-12-24T04:43:05.054Z,0
2016-12-24T04:44:05.385Z,0
2016-12-24T04:45:04.763Z,0
2016-12-24T04:46:05.732Z,0
2016-12-24T04:47:05.114Z,0
2016-12-24T04:48:05.469Z,0
2016-12-24T04:49:04.830Z,0
2016-12-24T04:50:05.475Z,0
2016-12-24T04:51:05.489Z,0
2016-12-24T04:52:05.503Z,0
2016-12-24T04:53:04.893Z,0
2016-12-24T04:54:05.533Z,0
2016-12-24T04:55:05.240Z,0
2016-12-24T04:56:05.255Z,0
2016-12-24T04:57:05.266Z,0
2016-12-24T04:58:05.911Z,0
2016-12-24T04:59:05.610Z,0
2016-12-24T05:00:05.314Z,0
2016-12-24T05:01:05.327Z,0
2016-12-24T05:02:05.343Z,0
2016-12-24T05:03:05.358Z,0
2016-12-24T05:04:05.386Z,0
2016-12-24T05:05:05.399Z,0
2016-12-24T05:06:05.717Z,0
2016-12-24T05:07:05.732Z,0
2016-12-24T05:08:05.763Z,0
2016-12-24T05:09:05.763Z,0
2016-12-24T05:10:05.476Z,0
2016-12-24T05:11:05.795Z,0
2016-12-24T05:12:06.125Z,0
2016-12-24T05:13:05.510Z,0
2016-12-24T05:14:05.523Z,0
2016-12-24T05:15:05.228Z,0
2016-12-24T05:16:05.558Z,0
2016-12-24T05:17:05.881Z,0
2016-12-24T05:18:05.586Z,0
2016-12-24T05:19:05.607Z,0
2016-12-24T05:20:05.616Z,0
2016-12-24T05:21:05.946Z,0
2016-12-24T05:22:05.985Z,0
2016-12-24T05:23:06.008Z,0
2016-12-24T05:24:05.997Z,0
2016-12-24T05:25:05.382Z,0
2016-12-24T05:26:05.716Z,0
2016-12-24T05:27:06.361Z,0
2016-12-24T05:28:05.744Z,0
2016-12-24T05:29:05.756Z,0
2016-12-24T05:30:05.766Z,0
2016-12-24T05:31:06.102Z,0
2016-12-24T05:32:06.116Z,0
2016-12-24T05:33:06.133Z,0
2016-12-24T05:34:06.146Z,0
2016-12-24T05:35:06.162Z,0
2016-12-24T05:36:06.179Z,0
2016-12-24T05:37:06.197Z,0
2016-12-24T05:38:05.581Z,0
2016-12-24T05:39:05.916Z,0
2016-12-24T05:40:05.618Z,0
2016-12-24T05:41:05.625Z,0
2016-12-24T05:42:06.271Z,0
2016-12-24T05:43:05.969Z,0
2016-12-24T05:44:06.309Z,0
2016-12-24T05:45:05.708Z,0
2016-12-24T05:46:06.038Z,0
2016-12-24T05:47:06.033Z,0
2016-12-24T05:48:06.394Z,0
2016-12-24T05:49:06.695Z,0
2016-12-24T05:50:06.083Z,0
2016-12-24T05:51:06.413Z,0
2016-12-24T05:52:06.457Z,0
2016-12-24T05:53:06.125Z,0
2016-12-24T05:54:06.141Z,0
2016-12-24T05:55:05.877Z,0
2016-12-24T05:56:06.491Z,0
2016-12-24T05:57:06.819Z,0
2016-12-24T05:58:06.524Z,0
2016-12-24T05:59:06.536Z,0
2016-12-24T06:00:05.922Z,0
2016-12-24T06:01:06.566Z,0
2016-12-24T06:02:06.268Z,0
2016-12-24T06:03:06.598Z,0
2016-12-24T06:04:06.320Z,0
2016-12-24T06:05:06.946Z,0
2016-12-24T06:06:06.644Z,0
2016-12-24T06:07:06.033Z,0
2016-12-24T06:08:06.359Z,0
2016-12-24T06:09:07.014Z,0
2016-12-24T06:10:06.389Z,0
2016-12-24T06:11:07.038Z,0
2016-12-24T06:12:06.104Z,0
2016-12-24T06:13:06.441Z,0
2016-12-24T06:14:06.448Z,0
2016-12-24T06:15:07.097Z,0
2016-12-24T06:16:06.485Z,0
2016-12-24T06:17:06.821Z,0
2016-12-24T06:18:06.516Z,0
2016-12-24T06:19:06.211Z,0
2016-12-24T06:20:06.231Z,0
2016-12-24T06:21:06.884Z,0
2016-12-24T06:22:07.209Z,0
2016-12-24T06:23:07.224Z,0
2016-12-24T06:24:06.932Z,0
2016-12-24T06:25:06.943Z,0
2016-12-24T06:26:06.641Z,0
2016-12-24T06:27:06.651Z,0
2016-12-24T06:28:06.352Z,0
2016-12-24T06:29:06.364Z,0
2016-12-24T06:30:06.700Z,0
2016-12-24T06:31:06.711Z,0
2016-12-24T06:32:06.741Z,0
2016-12-24T06:33:06.435Z,0
2016-12-24T06:34:07.075Z,0
2016-12-24T06:35:07.147Z,0
2016-12-24T06:36:06.476Z,0
2016-12-24T06:37:06.801Z,0
2016-12-24T06:38:06.506Z,4
2016-12-24T06:39:07.163Z,0
2016-12-24T06:40:07.492Z,0
2016-12-24T06:41:06.880Z,0
2016-12-24T06:42:07.514Z,4
2016-12-24T06:43:06.907Z,0
2016-12-24T06:44:07.244Z,4
2016-12-24T06:45:06.935Z,4
2016-12-24T06:46:07.584Z,4
2016-12-24T06:47:06.953Z,4
2016-12-24T06:48:07.603Z,4
2016-12-24T06:49:06.984Z,8
2016-12-24T06:50:07.034Z,8
2016-12-24T06:51:07.032Z,4
2016-12-24T06:52:07.054Z,8
2016-12-24T06:53:07.369Z,8
2016-12-24T06:54:07.709Z,8
2016-12-24T06:55:07.091Z,8
2016-12-24T06:56:07.407Z,12
2016-12-24T06:57:07.104Z,12
2016-12-24T06:58:07.468Z,12
2016-12-24T06:59:07.460Z,16
2016-12-24T07:00:07.157Z,12
2016-12-24T07:01:07.236Z,16
2016-12-24T07:02:07.807Z,16
2016-12-24T07:03:07.192Z,16
2016-12-24T07:04:07.215Z,16
2016-12-24T07:05:07.547Z,20
2016-12-24T07:06:07.554Z,24
2016-12-24T07:07:07.260Z,24
2016-12-24T07:08:07.626Z,28
2016-12-24T07:09:06.964Z,32
2016-12-24T07:10:07.299Z,32
2016-12-24T07:11:07.309Z,32
2016-12-24T07:12:07.669Z,36
2016-12-24T07:13:07.023Z,40
2016-12-24T07:14:07.351Z,40
2016-12-24T07:15:07.372Z,40
2016-12-24T07:16:07.070Z,44
2016-12-24T07:17:07.717Z,48
2016-12-24T07:18:07.725Z,48
2016-12-24T07:19:07.431Z,52
2016-12-24T07:20:07.442Z,56
2016-12-24T07:21:07.777Z,60
2016-12-24T07:22:08.135Z,64
2016-12-24T07:23:07.807Z,72
2016-12-24T07:24:07.509Z,76
2016-12-24T07:25:07.201Z,84
2016-12-24T07:26:08.175Z,92
2016-12-24T07:27:07.552Z,96
2016-12-24T07:28:07.883Z,104
2016-12-24T07:29:07.581Z,112
2016-12-24T07:30:07.611Z,120
2016-12-24T07:31:07.934Z,132
2016-12-24T07:32:07.940Z,140
2016-12-24T07:33:07.951Z,148
2016-12-24T07:34:07.987Z,160
2016-12-24T07:35:07.987Z,164
2016-12-24T07:36:08.024Z,172
2016-12-24T07:37:07.704Z,184
2016-12-24T07:38:07.715Z,188
2016-12-24T07:39:08.361Z,196
2016-12-24T07:40:08.059Z,204
2016-12-24T07:41:07.835Z,212
2016-12-24T07:42:08.105Z,224
2016-12-24T07:43:08.124Z,232
2016-12-24T07:44:08.120Z,236
2016-12-24T07:45:08.133Z,248
2016-12-24T07:46:07.842Z,252
2016-12-24T07:47:07.865Z,264
2016-12-24T07:48:07.865Z,280
2016-12-24T07:49:07.895Z,292
2016-12-24T07:50:08.208Z,304
2016-12-24T07:51:07.913Z,316
2016-12-24T07:52:07.922Z,320
2016-12-24T07:53:07.937Z,328
2016-12-24T07:54:07.951Z,332
2016-12-24T07:55:08.289Z,332
2016-12-24T07:56:07.985Z,332
2016-12-24T07:57:08.315Z,328
2016-12-24T07:58:08.016Z,328
2016-12-24T07:59:08.346Z,324
2016-12-24T08:00:08.359Z,324
2016-12-24T08:01:08.376Z,328
2016-12-24T08:02:08.387Z,340
2016-12-24T08:03:08.722Z,348
2016-12-24T08:04:08.423Z,368
2016-12-24T08:05:08.436Z,376
2016-12-24T08:06:08.138Z,384
2016-12-24T08:07:08.464Z,384
2016-12-24T08:08:08.483Z,372
2016-12-24T08:09:08.519Z,372
2016-12-24T08:10:08.539Z,368
2016-12-24T08:11:08.532Z,356
2016-12-24T08:12:08.225Z,344
2016-12-24T08:13:08.558Z,336
2016-12-24T08:14:08.258Z,328
2016-12-24T08:15:08.277Z,332
2016-12-24T08:16:08.602Z,344
2016-12-24T08:17:08.621Z,348
2016-12-24T08:18:08.008Z,348
2016-12-24T08:19:08.650Z,344
2016-12-24T08:20:08.345Z,320
2016-12-24T08:21:08.362Z,312
2016-12-24T08:22:08.063Z,324
2016-12-24T08:23:08.425Z,332
2016-12-24T08:24:08.725Z,320
2016-12-24T08:25:08.442Z,304
2016-12-24T08:26:08.451Z,284
2016-12-24T08:27:08.458Z,284
2016-12-24T08:28:08.163Z,316
2016-12-24T08:29:08.802Z,300
2016-12-24T08:30:08.501Z,272
2016-12-24T08:31:08.831Z,264
2016-12-24T08:32:08.527Z,252
2016-12-24T08:33:08.866Z,244
2016-12-24T08:34:08.561Z,236
2016-12-24T08:35:08.589Z,236
2016-12-24T08:36:08.589Z,232
2016-12-24T08:37:08.293Z,224
2016-12-24T08:38:08.628Z,220
2016-12-24T08:39:08.637Z,212
2016-12-24T08:40:08.660Z,208
2016-12-24T08:41:08.982Z,200
2016-12-24T08:42:08.996Z,200
2016-12-24T08:43:08.715Z,204
2016-12-24T08:44:08.730Z,196
2016-12-24T08:45:08.727Z,196
2016-12-24T08:46:09.060Z,196
2016-12-24T08:47:08.767Z,196
2016-12-24T08:49:08.516Z,188
2016-12-24T08:50:08.811Z,188
2016-12-24T08:51:09.136Z,200
2016-12-24T08:52:08.838Z,208
2016-12-24T08:53:08.876Z,220
2016-12-24T08:54:09.510Z,232
2016-12-24T08:55:09.214Z,248
2016-12-24T08:56:09.214Z,260
2016-12-24T08:57:09.229Z,280
2016-12-24T08:58:09.258Z,300
2016-12-24T08:59:09.575Z,320
2016-12-24T09:00:09.273Z,336
2016-12-24T09:01:09.319Z,348
2016-12-24T09:02:09.639Z,364
2016-12-24T09:03:08.702Z,376
2016-12-24T09:04:09.342Z,392
2016-12-24T09:05:09.352Z,408
2016-12-24T09:06:09.394Z,436
2016-12-24T09:07:09.100Z,460
2016-12-24T09:08:09.406Z,484
2016-12-24T09:09:08.785Z,508
2016-12-24T09:10:09.120Z,532
2016-12-24T09:11:09.451Z,560
2016-12-24T09:12:09.464Z,592
2016-12-24T09:13:09.485Z,628
2016-12-24T09:14:09.494Z,672
2016-12-24T09:15:09.511Z,720
2016-12-24T09:16:09.542Z,768
2016-12-24T09:17:08.922Z,820
2016-12-24T09:18:09.555Z,888
2016-12-24T09:19:09.252Z,980
2016-12-24T09:20:09.283Z,1036
2016-12-24T09:21:09.288Z,1236
2016-12-24T09:22:09.621Z,1412
2016-12-24T09:23:09.325Z,1068
2016-12-24T09:24:09.353Z,1628
2016-12-24T09:25:09.679Z,1940
2016-12-24T09:26:09.064Z,1424
2016-12-24T09:27:09.701Z,1456
2016-12-24T09:28:09.406Z,1048
2016-12-24T09:29:09.736Z,940
2016-12-24T09:30:09.755Z,952
2016-12-24T09:31:09.584Z,1268
2016-12-24T09:32:10.100Z,1132
2016-12-24T09:33:09.798Z,748
2016-12-24T09:34:09.501Z,1136
2016-12-24T09:35:09.519Z,1056
2016-12-24T09:36:09.903Z,916
2016-12-24T09:37:09.552Z,844
2016-12-24T09:38:09.890Z,844
2016-12-24T09:39:09.274Z,720
2016-12-24T09:40:09.916Z,780
2016-12-24T09:41:09.986Z,736
2016-12-24T09:42:09.954Z,720
2016-12-24T09:43:09.331Z,656
2016-12-24T09:44:09.671Z,600
2016-12-24T09:45:09.682Z,616
2016-12-24T09:46:09.757Z,548
2016-12-24T09:47:09.718Z,516
2016-12-24T09:48:10.370Z,508
2016-12-24T09:49:09.437Z,756
2016-12-24T09:50:09.769Z,896
2016-12-24T09:51:09.834Z,1096
2016-12-24T09:52:10.123Z,1104
2016-12-24T09:53:09.510Z,976
2016-12-24T09:54:09.834Z,800
2016-12-24T09:55:10.174Z,900
2016-12-24T09:56:10.185Z,1268
2016-12-24T09:57:09.886Z,1012
2016-12-24T09:58:09.905Z,648
2016-12-24T09:59:09.956Z,776
2016-12-24T10:00:09.628Z,792
2016-12-24T10:01:10.011Z,744
2016-12-24T10:02:10.286Z,596
2016-12-24T10:03:10.312Z,548
2016-12-24T10:04:10.665Z,516
2016-12-24T10:05:10.344Z,480
2016-12-24T10:06:10.468Z,420
2016-12-24T10:07:09.744Z,368
2016-12-24T10:08:09.759Z,340
2016-12-24T10:09:10.438Z,352
2016-12-24T10:10:09.819Z,376
2016-12-24T10:11:09.814Z,412
2016-12-24T10:12:10.775Z,432
2016-12-24T10:13:10.484Z,448
2016-12-24T10:14:10.188Z,444
2016-12-24T10:15:10.198Z,412
2016-12-24T10:16:24.797Z,340
2016-12-24T10:17:10.236Z,312
2016-12-24T10:18:10.565Z,276
2016-12-24T10:19:10.273Z,260
2016-12-24T10:20:10.915Z,236
2016-12-24T10:21:10.668Z,216
2016-12-24T10:22:10.636Z,212
2016-12-24T10:23:10.669Z,208
2016-12-24T10:24:10.668Z,212
2016-12-24T10:25:10.688Z,224
2016-12-24T10:26:10.754Z,240
2016-12-24T10:27:10.090Z,252
2016-12-24T10:28:10.742Z,272
2016-12-24T10:29:10.122Z,288
2016-12-24T10:30:10.780Z,312
2016-12-24T10:31:10.523Z,320
2016-12-24T10:32:10.808Z,324
2016-12-24T10:33:25.401Z,328
2016-12-24T10:34:10.528Z,332
2016-12-24T10:35:10.881Z,344
2016-12-24T10:36:10.560Z,344
2016-12-24T10:37:10.578Z,352
2016-12-24T10:38:10.952Z,356
2016-12-24T10:39:10.928Z,360
2016-12-24T10:40:10.634Z,364
2016-12-24T10:41:10.653Z,372
2016-12-24T10:42:10.358Z,384
2016-12-24T10:43:11.005Z,388
2016-12-24T10:44:11.026Z,400
2016-12-24T10:45:10.743Z,400
2016-12-24T10:46:10.572Z,416
2016-12-24T10:47:11.074Z,424
2016-12-24T10:48:10.488Z,440
2016-12-24T10:49:11.103Z,448
2016-12-24T10:50:11.446Z,456
2016-12-24T10:51:10.508Z,464
2016-12-24T10:52:11.168Z,472
2016-12-24T10:53:10.858Z,472
2016-12-24T10:54:11.193Z,472
2016-12-24T10:55:10.899Z,468
2016-12-24T10:56:10.914Z,464
2016-12-24T10:57:10.615Z,468
2016-12-24T10:58:10.949Z,460
2016-12-24T10:59:10.649Z,448
2016-12-24T11:00:11.312Z,424
2016-12-24T11:01:11.368Z,388
2016-12-24T11:02:11.333Z,356
2016-12-24T11:03:11.359Z,336
2016-12-24T11:04:11.052Z,324
2016-12-24T11:05:11.096Z,300
2016-12-24T11:06:10.770Z,276
2016-12-24T11:07:10.789Z,264
2016-12-24T11:08:11.123Z,260
2016-12-24T11:09:11.456Z,272
2016-12-24T11:10:10.842Z,292
2016-12-24T11:11:11.497Z,296
2016-12-24T11:12:11.514Z,292
2016-12-24T11:13:11.529Z,284
2016-12-24T11:14:10.912Z,284
2016-12-24T11:15:11.582Z,292
2016-12-24T11:16:11.581Z,296
2016-12-24T11:17:11.285Z,292
2016-12-24T11:18:11.616Z,296
2016-12-24T11:19:11.319Z,296
2016-12-24T11:20:12.113Z,300
2016-12-24T11:21:11.672Z,316
2016-12-24T11:22:11.372Z,332
2016-12-24T11:23:11.079Z,352
2016-12-24T11:24:11.724Z,372
2016-12-24T11:25:11.427Z,388
2016-12-24T11:26:11.160Z,392
2016-12-24T11:27:12.094Z,404
2016-12-24T11:28:11.500Z,440
2016-12-24T11:29:11.186Z,532
2016-12-24T11:30:11.532Z,716
2016-12-24T11:31:11.580Z,920
2016-12-24T11:32:11.867Z,808
2016-12-24T11:33:11.260Z,600
2016-12-24T11:34:11.583Z,488
2016-12-24T11:35:11.918Z,452
2016-12-24T11:36:11.933Z,472
2016-12-24T11:37:11.672Z,408
2016-12-24T11:38:11.664Z,376
2016-12-24T11:39:11.727Z,356
2016-12-24T11:40:11.696Z,352
2016-12-24T11:41:11.760Z,360
2016-12-24T11:42:12.044Z,360
2016-12-24T11:43:11.442Z,364
2016-12-24T11:44:11.451Z,356
2016-12-24T11:45:12.426Z,356
2016-12-24T11:46:11.541Z,332
2016-12-24T11:47:11.820Z,332
2016-12-24T11:48:12.035Z,336
2016-12-24T11:49:12.897Z,352
2016-12-24T11:50:11.907Z,336
2016-12-24T11:51:11.923Z,328
2016-12-24T11:52:12.226Z,328
2016-12-24T11:53:12.561Z,328
2016-12-24T11:54:11.961Z,324
2016-12-24T11:55:11.969Z,320
2016-12-24T11:56:12.036Z,324
2016-12-24T11:57:11.686Z,348
2016-12-24T11:58:12.335Z,384
2016-12-24T11:59:11.718Z,400
2016-12-24T12:00:12.381Z,404
2016-12-24T12:01:12.755Z,380
2016-12-24T12:02:12.406Z,344
2016-12-24T12:03:12.115Z,304
2016-12-24T12:04:11.815Z,276
2016-12-24T12:05:12.460Z,288
2016-12-24T12:06:12.167Z,320
2016-12-24T12:07:11.867Z,336
2016-12-24T12:08:12.515Z,320
2016-12-24T12:09:11.901Z,316
2016-12-24T12:10:12.246Z,328
2016-12-24T12:11:12.253Z,344
2016-12-24T12:12:12.907Z,368
2016-12-24T12:13:12.289Z,380
2016-12-24T12:14:11.997Z,372
2016-12-24T12:15:12.330Z,352
2016-12-24T12:16:12.346Z,336
2016-12-24T12:17:12.369Z,308
2016-12-24T12:18:12.065Z,272
2016-12-24T12:19:12.078Z,228
2016-12-24T12:20:12.418Z,192
2016-12-24T12:21:13.117Z,168
2016-12-24T12:22:13.083Z,172
2016-12-24T12:23:12.786Z,200
2016-12-24T12:24:12.493Z,244
2016-12-24T12:25:12.506Z,276
2016-12-24T12:26:12.849Z,292
2016-12-24T12:27:12.865Z,320
2016-12-24T12:28:12.253Z,328
2016-12-24T12:29:12.589Z,324
2016-12-24T12:30:12.935Z,328
2016-12-24T12:31:12.616Z,336
2016-12-24T12:32:12.950Z,368
2016-12-24T12:33:12.340Z,400
2016-12-24T12:34:12.675Z,376
2016-12-24T12:35:12.372Z,296
2016-12-24T12:36:12.705Z,224
2016-12-24T12:37:12.729Z,204
2016-12-24T12:38:12.463Z,212
2016-12-24T12:39:13.078Z,228
2016-12-24T12:40:12.778Z,256
2016-12-24T12:41:12.855Z,288
2016-12-24T12:42:12.499Z,304
2016-12-24T12:43:12.852Z,296
2016-12-24T12:44:12.861Z,288
2016-12-24T12:45:13.508Z,292
2016-12-24T12:46:12.887Z,308
2016-12-24T12:47:12.935Z,336
2016-12-24T12:48:27.501Z,336
2016-12-24T12:49:13.297Z,300
2016-12-24T12:50:13.285Z,232
2016-12-24T12:51:12.983Z,180
2016-12-24T12:52:13.007Z,160
2016-12-24T12:53:13.020Z,160
2016-12-24T12:54:13.669Z,172
2016-12-24T12:55:13.057Z,176
2016-12-24T12:56:12.787Z,172
2016-12-24T12:57:13.727Z,160
2016-12-24T12:58:13.114Z,160
2016-12-24T12:59:13.140Z,160
2016-12-24T13:00:13.460Z,140
2016-12-24T13:01:13.174Z,124
2016-12-24T13:02:13.213Z,112
2016-12-24T13:03:13.207Z,112
2016-12-24T13:04:12.904Z,116
2016-12-24T13:05:13.263Z,112
2016-12-24T13:06:13.287Z,116
2016-12-24T13:07:12.977Z,144
2016-12-24T13:08:13.959Z,168
2016-12-24T13:09:13.318Z,168
2016-12-24T13:10:13.985Z,168
2016-12-24T13:11:13.668Z,172
2016-12-24T13:12:13.388Z,180
2016-12-24T13:13:13.387Z,184
2016-12-24T13:14:13.101Z,184
2016-12-24T13:15:13.742Z,172
2016-12-24T13:16:13.130Z,180
2016-12-24T13:17:13.163Z,188
2016-12-24T13:18:13.483Z,180
2016-12-24T13:19:13.820Z,164
2016-12-24T13:20:13.546Z,160
2016-12-24T13:21:13.234Z,188
2016-12-24T13:22:13.576Z,208
2016-12-24T13:23:13.906Z,248
2016-12-24T13:24:13.942Z,216
2016-12-24T13:25:14.240Z,204
2016-12-24T13:26:13.681Z,192
2016-12-24T13:27:13.959Z,196
2016-12-24T13:28:13.356Z,180
2016-12-24T13:29:14.368Z,176
2016-12-24T13:30:14.033Z,160
2016-12-24T13:31:14.036Z,180
2016-12-24T13:32:14.374Z,180
2016-12-24T13:33:14.113Z,192
2016-12-24T13:34:14.412Z,164
2016-12-24T13:35:13.800Z,132
2016-12-24T13:36:13.816Z,120
2016-12-24T13:37:13.517Z,104
2016-12-24T13:38:14.169Z,88
2016-12-24T13:39:13.567Z,88
2016-12-24T13:40:14.205Z,96
2016-12-24T13:41:14.276Z,108
2016-12-24T13:42:13.925Z,100
2016-12-24T13:43:14.263Z,104
2016-12-24T13:44:14.616Z,108
2016-12-24T13:45:13.983Z,108
2016-12-24T13:46:14.344Z,120
2016-12-24T13:47:14.020Z,96
2016-12-24T13:48:14.671Z,84
2016-12-24T13:49:14.057Z,80
2016-12-24T13:50:13.759Z,76
2016-12-24T13:51:13.774Z,72
2016-12-24T13:52:14.433Z,64
2016-12-24T13:53:14.446Z,60
2016-12-24T13:54:14.465Z,44
2016-12-24T13:55:14.486Z,32
2016-12-24T13:56:14.507Z,44
2016-12-24T13:57:14.202Z,68
2016-12-24T13:58:14.224Z,68
2016-12-24T13:59:14.559Z,72
2016-12-24T14:00:14.284Z,80
2016-12-24T14:01:14.593Z,80
2016-12-24T14:02:14.618Z,76
2016-12-24T14:03:14.312Z,64
2016-12-24T14:04:14.022Z,60
2016-12-24T14:05:14.668Z,76
2016-12-24T14:06:14.714Z,84
2016-12-24T14:07:14.707Z,76
2016-12-24T14:08:14.406Z,76
2016-12-24T14:09:14.425Z,72
2016-12-24T14:10:14.445Z,68
2016-12-24T14:11:14.142Z,72
2016-12-24T14:12:14.477Z,80
2016-12-24T14:13:14.180Z,88
2016-12-24T14:14:14.541Z,96
2016-12-24T14:15:14.858Z,104
2016-12-24T14:16:14.867Z,104
2016-12-24T14:17:15.226Z,92